Time;durP1;ratioP1;P1;durP2;ratioP2;P2;SDS_P1;SDS_P2;PMS_P1;PMS_P2;Temp;Humidity;BMP_temperature;BMP_pressure;BME280_temperature;BME280_humidity;BME280_pressure;Samples;Min_cycle;Max_cycle;Signal;HPM_P1;HPM_P2
2022/02/05 00:02:55;;;;;;;27.92;13.95;;;;;;;2.07;80.54;99344.69;5091707;28;20092;-69
2022/02/05 00:05:32;;;;;;;28.17;14.57;;;;;;;2.09;81.06;99337.22;5091402;28;20051;-68
2022/02/05 00:08:19;;;;;;;28.98;15.15;;;;;;;2.07;81.33;99349.72;5088770;28;20036;-69
2022/02/05 00:40:30;;;;;;;27.30;13.85;;;;;;;2.13;81.68;99336.47;5091751;28;20052;-68
2022/02/05 00:42:59;;;;;;;28.70;14.40;;;;;;;2.12;81.66;99328.06;5090356;28;20055;-67
2022/02/05 00:45:33;;;;;;;28.33;14.45;;;;;;;2.15;81.06;99334.84;5091103;28;20044;-67
2022/02/05 00:48:04;;;;;;;30.23;14.00;;;;;;;2.16;81.56;99322.28;5088346;28;20493;-67
2022/02/05 00:50:37;;;;;;;28.15;14.80;;;;;;;2.33;82.01;99330.28;5091748;28;20040;-69
2022/02/05 00:53:11;;;;;;;27.15;14.70;;;;;;;2.37;80.96;99330.44;5091270;28;20382;-69
2022/02/05 00:55:47;;;;;;;31.02;14.70;;;;;;;2.39;81.53;99338.00;5093576;28;20413;-67
2022/02/05 00:58:16;;;;;;;29.27;14.00;;;;;;;2.42;81.10;99333.91;5091975;28;20044;-67
2022/02/05 01:00:48;;;;;;;27.58;14.65;;;;;;;2.43;81.21;99330.56;5093500;28;20071;-69
2022/02/05 01:03:17;;;;;;;34.20;15.07;;;;;;;2.43;81.25;99330.56;5087408;28;20040;-69
2022/02/05 01:05:46;;;;;;;32.27;14.60;;;;;;;2.48;81.49;99323.97;5091075;28;20051;-69
2022/02/05 01:08:15;;;;;;;32.13;15.00;;;;;;;2.54;80.80;99319.09;5087805;28;20291;-69
2022/02/05 01:10:44;;;;;;;35.03;14.88;;;;;;;2.46;80.89;99318.06;5093325;28;20052;-67
2022/02/05 01:13:14;;;;;;;31.25;15.38;;;;;;;2.50;81.09;99317.31;5089521;28;20032;-67
2022/02/05 01:15:50;;;;;;;31.52;15.43;;;;;;;2.54;81.50;99328.34;5087605;28;20032;-67
2022/02/05 01:18:23;;;;;;;34.47;16.17;;;;;;;2.51;80.74;99334.16;5088261;28;20106;-68
2022/02/05 01:21:10;;;;;;;30.45;14.10;;;;;;;2.53;81.05;99332.50;5092909;28;20525;-67
2022/02/05 01:23:44;;;;;;;32.67;15.95;;;;;;;2.55;80.76;99346.00;5091768;28;20039;-67
2022/02/05 01:26:22;;;;;;;29.70;15.55;;;;;;;2.58;80.45;99341.03;5094962;28;20379;-67
2022/02/05 01:28:56;;;;;;;33.22;16.75;;;;;;;2.61;80.51;99331.03;5093794;28;20071;-67
2022/02/05 01:31:29;;;;;;;32.53;15.98;;;;;;;2.60;80.31;99323.44;5092224;28;20512;-67
2022/02/05 01:34:10;;;;;;;32.35;15.85;;;;;;;2.59;81.03;99332.66;5084761;28;20541;-67
2022/02/05 01:48:45;;;;;;;31.90;15.77;;;;;;;2.61;80.18;99327.66;5083709;28;20051;-69
2022/02/05 01:55:59;;;;;;;39.00;16.90;;;;;;;2.56;80.59;99337.63;5092029;28;20130;-69
2022/02/05 01:58:41;;;;;;;33.33;16.35;;;;;;;2.44;81.15;99312.13;5093452;28;20052;-69
2022/02/05 02:06:46;;;;;;;34.83;15.75;;;;;;;2.48;80.19;99326.50;5091720;28;20044;-69
2022/02/05 02:11:58;;;;;;;32.40;15.77;;;;;;;2.34;81.00;99329.47;5088496;28;20127;-68
2022/02/05 02:14:38;;;;;;;30.63;15.95;;;;;;;2.33;81.26;99336.16;5091963;28;20126;-67
2022/02/05 02:20:02;;;;;;;35.17;15.18;;;;;;;2.41;80.72;99337.22;5089230;28;20037;-69
2022/02/05 02:22:39;;;;;;;31.00;15.27;;;;;;;2.34;81.58;99342.06;5087684;28;20135;-69
2022/02/05 02:25:18;;;;;;;30.02;15.88;;;;;;;2.37;81.65;99344.69;5093825;28;20036;-68
2022/02/05 02:27:58;;;;;;;27.38;16.13;;;;;;;2.31;81.22;99357.94;5093380;28;20040;-67
2022/02/05 02:30:30;;;;;;;28.95;15.60;;;;;;;2.27;81.42;99348.63;5090137;28;20078;-68
2022/02/05 02:33:06;;;;;;;28.70;14.48;;;;;;;2.31;81.11;99340.31;5093341;28;20076;-69
2022/02/05 02:35:39;;;;;;;32.53;16.23;;;;;;;2.36;81.25;99348.00;5091078;28;20533;-69
2022/02/05 02:38:13;;;;;;;26.92;15.65;;;;;;;2.30;82.00;99338.63;5095622;28;20044;-68
2022/02/05 02:40:46;;;;;;;32.17;15.07;;;;;;;2.30;81.72;99322.66;5094043;28;20047;-67
2022/02/05 02:43:21;;;;;;;33.28;15.77;;;;;;;2.20;80.93;99316.53;5091973;28;20094;-67
2022/02/05 02:45:50;;;;;;;34.17;16.60;;;;;;;2.13;81.72;99314.69;5075171;28;20454;-68
2022/02/05 02:48:19;;;;;;;32.38;16.20;;;;;;;2.14;81.47;99313.84;5074773;28;20044;-68
2022/02/05 02:58:48;;;;;;;30.80;14.80;;;;;;;1.90;81.61;99341.72;5094785;28;20068;-67
2022/02/05 03:01:19;;;;;;;30.38;15.43;;;;;;;1.89;81.21;99349.25;5089346;28;20097;-69
2022/02/05 03:03:48;;;;;;;31.38;14.85;;;;;;;1.88;81.90;99343.34;5089029;28;20055;-67
2022/02/05 03:06:17;;;;;;;30.30;14.47;;;;;;;1.89;81.44;99344.19;5087833;28;20104;-67
2022/02/05 03:08:49;;;;;;;31.58;15.02;;;;;;;1.74;81.63;99349.66;5091269;28;20292;-67
2022/02/05 03:11:19;;;;;;;33.17;15.57;;;;;;;1.61;81.64;99351.78;5091330;28;20048;-67
2022/02/05 03:13:48;;;;;;;28.10;14.50;;;;;;;1.48;81.66;99339.66;5092350;28;20489;-70
2022/02/05 03:16:23;;;;;;;29.08;14.80;;;;;;;1.40;81.70;99339.41;5090075;28;20048;-69
2022/02/05 03:19:08;;;;;;;32.95;15.52;;;;;;;1.31;81.73;99337.50;5091322;28;20072;-69
2022/02/05 03:21:38;;;;;;;34.30;15.27;;;;;;;1.21;82.03;99320.44;5087203;28;20048;-69
2022/02/05 03:24:09;;;;;;;34.95;17.15;;;;;;;1.32;82.11;99339.19;5092302;28;20047;-67
2022/02/05 03:26:38;;;;;;;27.20;13.00;;;;;;;1.34;81.77;99347.63;5091618;28;20402;-69
2022/02/05 03:29:09;;;;;;;31.90;14.65;;;;;;;1.30;81.99;99350.84;5094559;28;20405;-68
2022/02/05 03:31:38;;;;;;;26.75;14.55;;;;;;;1.19;82.26;99347.16;5090956;28;20093;-69
2022/02/05 03:34:08;;;;;;;33.50;14.45;;;;;;;1.14;81.71;99342.81;5094180;28;20079;-69
2022/02/05 03:36:41;;;;;;;30.10;13.73;;;;;;;1.06;81.94;99352.59;5090019;28;20430;-67
2022/02/05 03:39:11;;;;;;;32.28;14.55;;;;;;;1.02;82.06;99357.50;5090875;28;20047;-68
2022/02/05 03:41:41;;;;;;;27.70;14.27;;;;;;;0.95;81.76;99346.41;5091328;28;20489;-67
2022/02/05 03:44:10;;;;;;;34.10;15.80;;;;;;;0.82;81.94;99324.19;5091642;28;20040;-68
2022/02/05 03:46:39;;;;;;;31.10;14.27;;;;;;;0.98;82.14;99341.50;5092531;28;20048;-67
2022/02/05 03:49:08;;;;;;;30.38;16.20;;;;;;;1.03;82.17;99355.00;5089147;28;20043;-68
2022/02/05 03:51:37;;;;;;;33.10;15.32;;;;;;;1.07;81.47;99359.34;5088697;28;20062;-67
2022/02/05 03:54:06;;;;;;;29.92;13.00;;;;;;;0.99;81.73;99350.72;5090595;28;20482;-68
2022/02/05 03:56:38;;;;;;;29.55;14.05;;;;;;;0.99;82.05;99352.38;5092705;28;20157;-67
2022/02/05 03:59:07;;;;;;;29.52;14.90;;;;;;;1.19;82.40;99359.75;5091920;28;20044;-68
2022/02/05 04:01:36;;;;;;;31.05;15.48;;;;;;;1.27;81.89;99345.72;5088702;28;20040;-67
2022/02/05 04:04:05;;;;;;;31.80;17.30;;;;;;;1.35;82.26;99351.00;5092095;28;20489;-68
2022/02/05 04:06:34;;;;;;;40.13;17.67;;;;;;;1.37;81.78;99358.59;5089774;28;20363;-67
2022/02/05 04:09:07;;;;;;;32.58;15.55;;;;;;;1.42;82.02;99364.63;5091290;28;20044;-69
2022/02/05 04:11:55;;;;;;;36.15;17.13;;;;;;;1.42;82.38;99369.66;5093483;28;20217;-67
2022/02/05 04:17:04;;;;;;;30.17;14.63;;;;;;;1.55;83.01;99369.19;5089347;28;20042;-67
2022/02/05 04:19:33;;;;;;;31.77;15.20;;;;;;;1.66;82.19;99375.38;5092496;28;20082;-69
2022/02/05 04:22:02;;;;;;;36.67;18.03;;;;;;;1.67;82.43;99379.59;5093882;28;20044;-67
2022/02/05 04:24:31;;;;;;;32.88;16.15;;;;;;;1.63;82.07;99387.88;5086127;28;20319;-68
2022/02/05 04:27:01;;;;;;;32.37;14.37;;;;;;;1.53;82.24;99389.25;5092357;28;20047;-70
2022/02/05 04:29:30;;;;;;;30.23;15.23;;;;;;;1.34;82.20;99390.34;5090881;28;20127;-68
2022/02/05 04:31:59;;;;;;;30.50;15.70;;;;;;;1.32;82.30;99384.41;5091086;28;20037;-69
2022/02/05 04:34:28;;;;;;;34.28;15.77;;;;;;;1.34;82.58;99375.25;5090527;28;20126;-69
2022/02/05 04:36:59;;;;;;;23.65;14.30;;;;;;;1.37;82.68;99389.59;5093994;28;20388;-69
2022/02/05 04:39:29;;;;;;;28.95;13.43;;;;;;;1.25;81.80;99387.56;5093630;28;20131;-69
2022/02/05 04:42:05;;;;;;;26.05;13.80;;;;;;;1.16;82.35;99382.25;5089219;28;20093;-67
2022/02/05 04:44:54;;;;;;;31.08;14.18;;;;;;;1.20;82.13;99394.09;5090194;28;20036;-69
2022/02/05 04:50:41;;;;;;;27.63;13.38;;;;;;;1.18;81.83;99385.66;5133023;27;20375;-69
2022/02/05 04:53:32;;;;;;;29.20;13.82;;;;;;;1.08;81.88;99398.72;5118077;27;20129;-68
2022/02/05 05:01:36;;;;;;;30.00;13.43;;;;;;;1.25;82.29;99407.66;5114725;28;20168;-67
2022/02/05 05:04:22;;;;;;;30.30;14.90;;;;;;;1.27;82.11;99426.16;5114203;28;20047;-67
2022/02/05 05:09:45;;;;;;;31.98;16.23;;;;;;;1.43;83.05;99426.63;5088710;28;20040;-68
2022/02/05 05:20:11;;;;;;;32.60;15.57;;;;;;;1.70;82.31;99428.34;5109406;28;20051;-68
2022/02/05 05:22:41;;;;;;;;;;;;;;;1.76;82.11;99436.06;5110261;28;20039;-70
2022/02/05 05:25:15;;;;;;;28.25;14.75;;;;;;;1.79;82.29;99427.75;5116661;28;19920;-68
2022/02/05 05:27:44;;;;;;;29.50;14.75;;;;;;;1.81;83.02;99416.06;5110795;28;20040;-68
2022/02/05 05:30:14;;;;;;;33.08;14.98;;;;;;;1.81;82.46;99431.16;5109467;28;20396;-68
2022/02/05 05:32:43;;;;;;;;;;;;;;;1.87;82.17;99441.44;5115538;28;20039;-68
2022/02/05 05:35:11;;;;;;;24.50;12.98;;;;;;;1.85;82.15;99438.00;5115275;28;19927;-66
2022/02/05 05:37:42;;;;;;;29.40;13.30;;;;;;;1.86;82.47;99449.78;5110863;28;20039;-66
2022/02/05 05:40:12;;;;;;;23.30;12.77;;;;;;;1.89;82.60;99433.13;5112631;28;20044;-67
2022/02/05 05:42:46;;;;;;;22.17;12.27;;;;;;;1.92;82.44;99445.75;5110835;28;20044;-68
2022/02/05 05:45:27;;;;;;;22.38;12.70;;;;;;;1.98;82.22;99450.13;5115975;28;20058;-68
2022/02/05 05:47:57;;;;;;;28.58;11.68;;;;;;;1.98;82.56;99455.16;5111818;28;20094;-69
2022/02/05 05:53:08;;;;;;;18.70;10.38;;;;;;;2.25;82.66;99455.97;5110364;28;20055;-68
2022/02/05 05:55:41;;;;;;;21.40;9.35;;;;;;;2.31;82.81;99461.16;5110268;28;20070;-68
2022/02/05 05:58:11;;;;;;;22.40;10.40;;;;;;;2.31;82.00;99456.13;5111777;28;20042;-68
2022/02/05 06:00:40;;;;;;;19.02;8.73;;;;;;;2.43;82.39;99484.16;5107303;28;20040;-69
2022/02/05 06:03:09;;;;;;;21.45;10.25;;;;;;;2.41;82.17;99495.00;5106669;28;20058;-68
2022/02/05 06:05:38;;;;;;;27.65;11.90;;;;;;;2.45;82.02;99497.66;5104286;28;20048;-67
2022/02/05 06:08:12;;;;;;;22.27;11.20;;;;;;;2.54;82.84;99495.38;5097452;28;20063;-68
2022/02/05 06:10:42;;;;;;;20.13;10.20;;;;;;;2.54;82.63;99497.91;5096659;28;20512;-68
2022/02/05 06:13:13;;;;;;;19.92;10.45;;;;;;;2.63;82.23;99525.03;5103367;28;20031;-68
2022/02/05 06:15:43;;;;;;;18.25;9.95;;;;;;;2.62;81.56;99523.31;5116996;28;20040;-67
2022/02/05 06:18:12;;;;;;;17.42;9.25;;;;;;;2.55;81.50;99532.38;5108872;27;20086;-67
2022/02/05 06:20:41;;;;;;;15.23;7.60;;;;;;;2.56;81.87;99546.69;5113692;28;20488;-66
2022/02/05 06:23:12;;;;;;;23.13;11.52;;;;;;;2.50;81.93;99538.94;5109668;28;20046;-70
2022/02/05 06:25:41;;;;;;;22.23;12.15;;;;;;;2.47;81.97;99538.84;5099654;28;20036;-67
2022/02/05 06:28:14;;;;;;;;;;;;;;;2.49;81.26;99552.34;5100113;28;20064;-68
2022/02/05 06:30:44;;;;;;;23.17;10.05;;;;;;;2.50;81.83;99569.16;5106861;28;20506;-69
2022/02/05 06:33:13;;;;;;;23.45;10.88;;;;;;;2.53;81.19;99579.31;5104818;28;20051;-67
2022/02/05 06:35:42;;;;;;;24.75;11.75;;;;;;;2.56;81.89;99598.72;5099388;28;20040;-67
2022/02/05 06:38:13;;;;;;;15.85;8.48;;;;;;;2.60;81.77;99608.06;5105498;28;20050;-68
2022/02/05 06:40:42;;;;;;;25.70;12.13;;;;;;;2.63;81.63;99614.06;5099008;28;20048;-67
2022/02/05 06:43:13;;;;;;;23.88;11.38;;;;;;;2.65;81.59;99620.00;5102701;28;20048;-67
2022/02/05 06:45:42;;;;;;;22.85;11.52;;;;;;;2.65;81.39;99634.25;5098756;28;20448;-68
2022/02/05 06:48:11;;;;;;;22.10;10.65;;;;;;;2.67;81.12;99651.13;5098997;28;20440;-67
2022/02/05 06:50:40;;;;;;;22.03;11.30;;;;;;;2.70;81.90;99653.72;5100080;28;20039;-67
2022/02/05 06:53:09;;;;;;;24.03;12.23;;;;;;;2.73;81.32;99656.31;5096497;28;20769;-68
2022/02/05 06:55:40;;;;;;;18.90;10.57;;;;;;;2.76;80.91;99667.31;5100158;28;20047;-68
2022/02/05 06:58:09;;;;;;;22.00;11.27;;;;;;;2.68;80.87;99667.97;5105202;28;20297;-70
2022/02/05 07:00:38;;;;;;;19.65;9.30;;;;;;;2.69;80.79;99673.81;5104196;28;20040;-69
2022/02/05 07:03:08;;;;;;;21.65;10.18;;;;;;;2.69;80.69;99677.22;5095960;28;20044;-67
2022/02/05 07:05:37;;;;;;;19.15;9.93;;;;;;;2.74;80.63;99689.94;5095091;28;20517;-68
2022/02/05 07:08:06;;;;;;;20.70;10.00;;;;;;;2.74;81.17;99705.06;5108040;28;20046;-67
2022/02/05 07:10:35;;;;;;;19.95;9.30;;;;;;;2.73;80.46;99695.81;5115457;28;20546;-67
2022/02/05 07:13:12;;;;;;;17.93;9.23;;;;;;;2.88;81.34;99701.28;5101140;28;20043;-70
2022/02/05 07:15:47;;;;;;;18.08;9.38;;;;;;;3.01;81.32;99697.47;5100913;28;20308;-70
2022/02/05 07:18:25;;;;;;;20.05;10.73;;;;;;;3.11;81.08;99707.00;5100018;28;20105;-68
2022/02/05 07:20:58;;;;;;;12.75;6.22;;;;;;;3.27;80.40;99709.16;5091150;28;20048;-67
2022/02/05 07:23:44;;;;;;;9.38;5.03;;;;;;;3.57;79.93;99714.22;5097256;28;20492;-67
2022/02/05 07:31:45;;;;;;;4.78;2.10;;;;;;;4.82;78.41;99724.97;5091259;28;20039;-67
2022/02/05 07:34:15;;;;;;;4.45;2.15;;;;;;;5.07;77.07;99724.69;5098732;28;20048;-68
2022/02/05 07:36:44;;;;;;;4.15;1.90;;;;;;;5.28;76.08;99729.34;5100273;28;20489;-69
2022/02/05 07:39:13;;;;;;;3.25;1.40;;;;;;;5.45;74.79;99735.59;5108048;28;20393;-67
2022/02/05 07:41:43;;;;;;;6.03;1.65;;;;;;;5.63;73.20;99741.06;5101467;28;20082;-67
2022/02/05 07:44:16;;;;;;;3.80;1.48;;;;;;;5.67;72.29;99721.69;5097696;28;20055;-68
2022/02/05 07:46:50;;;;;;;4.82;1.10;;;;;;;5.92;71.29;99741.63;5099732;28;20127;-67
2022/02/05 07:49:22;;;;;;;3.13;1.48;;;;;;;6.15;69.79;99742.03;5094364;28;20138;-66
2022/02/05 07:51:51;;;;;;;2.60;1.10;;;;;;;6.24;69.08;99748.13;5102914;28;20049;-67
2022/02/05 07:54:20;;;;;;;2.38;0.98;;;;;;;6.31;68.06;99739.78;5097913;28;20040;-67
2022/02/05 07:56:50;;;;;;;2.25;1.10;;;;;;;6.38;67.74;99736.53;5108681;28;20059;-69
2022/02/05 07:59:21;;;;;;;2.95;1.25;;;;;;;6.57;66.43;99758.84;5110201;28;20051;-67
2022/02/05 08:01:50;;;;;;;2.03;0.90;;;;;;;6.72;66.30;99759.06;5098550;28;20068;-68
2022/02/05 08:04:19;;;;;;;1.20;0.70;;;;;;;6.97;64.91;99764.53;5098201;28;20047;-67
2022/02/05 08:06:50;;;;;;;1.75;0.90;;;;;;;6.98;64.53;99767.06;5109983;27;20370;-67
2022/02/05 08:09:22;;;;;;;1.42;0.70;;;;;;;6.95;63.51;99778.88;5110457;27;20047;-67
2022/02/05 08:11:55;;;;;;;2.58;0.90;;;;;;;7.00;63.30;99785.75;5100343;28;20044;-67
2022/02/05 08:14:27;;;;;;;1.58;0.70;;;;;;;7.13;63.01;99781.69;5097493;28;20105;-67
2022/02/05 08:17:02;;;;;;;1.38;0.77;;;;;;;7.09;62.47;99785.88;5098273;28;20040;-69
2022/02/05 08:19:31;;;;;;;1.67;0.93;;;;;;;7.13;62.57;99796.91;5092572;28;20083;-67
2022/02/05 08:22:19;;;;;;;1.58;0.90;;;;;;;7.15;63.06;99800.34;5100070;28;20490;-68
2022/02/05 08:24:48;;;;;;;2.75;1.00;;;;;;;7.10;62.93;99801.97;5093795;28;20501;-67
2022/02/05 08:27:17;;;;;;;1.02;0.70;;;;;;;6.94;62.10;99803.38;5091533;28;20044;-67
2022/02/05 08:29:54;;;;;;;1.95;0.98;;;;;;;7.00;61.93;99807.72;5094618;28;20127;-69
2022/02/05 08:32:26;;;;;;;1.02;0.80;;;;;;;7.01;61.72;99812.81;5094605;28;20044;-67
2022/02/05 08:34:57;;;;;;;1.20;0.80;;;;;;;7.01;60.00;99817.03;5097468;28;20040;-67
2022/02/05 08:37:26;;;;;;;0.75;0.65;;;;;;;7.17;59.70;99817.31;5105074;28;20055;-67
2022/02/05 08:39:55;;;;;;;1.20;0.90;;;;;;;7.25;59.59;99817.38;5113497;28;20039;-68
2022/02/05 08:42:24;;;;;;;1.55;0.93;;;;;;;7.29;59.07;99824.25;5106712;28;20055;-67
2022/02/05 08:44:55;;;;;;;1.73;0.70;;;;;;;7.37;58.81;99830.25;5103333;28;20100;-68
2022/02/05 08:47:24;;;;;;;1.35;0.73;;;;;;;7.48;58.54;99828.75;5107691;28;20066;-68
2022/02/05 08:49:55;;;;;;;3.00;0.70;;;;;;;7.57;57.35;99831.41;5113700;28;20108;-67
2022/02/05 08:52:24;;;;;;;1.55;1.00;;;;;;;7.82;57.23;99837.66;5106477;28;20101;-68
2022/02/05 08:54:53;;;;;;;1.15;0.70;;;;;;;8.08;56.73;99842.25;5097101;28;20040;-68
2022/02/05 08:57:22;;;;;;;1.37;0.70;;;;;;;8.31;56.59;99852.69;5103500;28;20082;-68
2022/02/05 08:59:55;;;;;;;1.67;0.80;;;;;;;8.47;55.51;99846.91;5109221;28;20092;-67
2022/02/05 09:02:34;;;;;;;3.58;0.90;;;;;;;8.70;54.24;99845.47;5098717;28;20563;-67
2022/02/05 09:05:09;;;;;;;2.53;0.80;;;;;;;8.84;53.36;99839.63;5094652;28;20051;-67
2022/02/05 09:07:40;;;;;;;1.55;0.80;;;;;;;8.79;52.10;99854.84;5097105;28;20047;-67
2022/02/05 09:10:25;;;;;;;1.38;0.80;;;;;;;8.95;52.58;99851.59;5092308;28;20056;-68
2022/02/05 09:15:33;;;;;;;2.40;1.00;;;;;;;9.04;50.96;99856.78;5103797;28;20044;-68
2022/02/05 09:18:04;;;;;;;;;;;;;;;9.08;50.72;99857.66;5111473;28;20036;-68
2022/02/05 09:20:33;;;;;;;3.25;1.10;;;;;;;8.81;49.64;99868.44;5101580;28;19924;-67
2022/02/05 09:23:02;;;;;;;1.23;0.60;;;;;;;8.54;50.39;99869.03;5093253;28;20047;-68
2022/02/05 09:25:31;;;;;;;1.38;0.82;;;;;;;8.28;51.18;99874.69;5097288;28;20050;-67
2022/02/05 09:28:00;;;;;;;2.83;0.65;;;;;;;8.10;51.56;99881.22;5093151;28;20047;-67
2022/02/05 09:30:43;;;;;;;2.43;0.67;;;;;;;7.87;51.94;99884.31;5102696;28;20502;-68
2022/02/05 09:33:14;;;;;;;0.63;0.60;;;;;;;7.79;51.97;99890.97;5112002;28;20035;-67
2022/02/05 09:35:43;;;;;;;0.85;0.63;;;;;;;7.71;51.69;99879.84;5099564;28;20093;-67
2022/02/05 09:38:12;;;;;;;0.88;0.60;;;;;;;7.66;51.95;99882.31;5111215;28;20130;-67
2022/02/05 09:40:41;;;;;;;1.92;0.70;;;;;;;7.79;51.64;99878.28;5108844;28;20058;-68
2022/02/05 09:43:10;;;;;;;1.25;0.70;;;;;;;7.84;51.34;99892.75;5098445;28;20059;-67
2022/02/05 09:45:39;;;;;;;1.55;0.85;;;;;;;7.86;51.27;99888.53;5100086;28;20040;-68
2022/02/05 09:48:08;;;;;;;2.90;0.90;;;;;;;7.92;50.70;99886.06;5112602;28;20536;-67
2022/02/05 09:50:39;;;;;;;2.03;0.80;;;;;;;8.06;51.01;99888.81;5115423;27;20036;-67
2022/02/05 09:53:15;;;;;;;2.50;1.27;;;;;;;8.17;51.01;99892.31;5104553;28;20291;-67
2022/02/05 09:55:46;;;;;;;5.68;2.00;;;;;;;8.13;50.22;99891.41;5093072;28;20047;-67
2022/02/05 09:58:17;;;;;;;3.03;1.55;;;;;;;8.09;51.01;99889.69;5100511;28;20066;-67
2022/02/05 10:01:00;;;;;;;1.17;0.82;;;;;;;8.08;51.35;99898.16;5109167;28;20036;-68
2022/02/05 10:03:33;;;;;;;1.92;0.63;;;;;;;8.00;50.57;99896.34;5103376;28;20044;-67
2022/02/05 10:06:38;;;;;;;1.52;0.65;;;;;;;7.94;50.51;99904.72;5104084;28;20473;-67
2022/02/05 10:09:10;;;;;;;1.30;0.70;;;;;;;8.08;50.71;99899.84;5106864;28;20058;-69
2022/02/05 10:11:59;;;;;;;1.05;0.70;;;;;;;7.98;50.07;99901.41;5105769;28;20048;-67
2022/02/05 10:14:34;;;;;;;2.85;0.80;;;;;;;7.92;51.09;99911.47;5102827;28;20043;-67
2022/02/05 10:17:06;;;;;;;2.65;0.70;;;;;;;7.85;51.45;99909.69;5098070;28;20071;-67
2022/02/05 10:19:46;;;;;;;1.25;0.80;;;;;;;7.76;51.41;99904.47;5107016;28;20042;-67
2022/02/05 10:22:19;;;;;;;0.88;0.70;;;;;;;7.71;51.77;99900.16;5104960;27;20122;-67
2022/02/05 10:24:50;;;;;;;2.55;1.13;;;;;;;7.49;52.10;99914.22;5124029;27;20039;-71
2022/02/05 10:27:30;;;;;;;0.93;0.77;;;;;;;7.32;52.27;99908.03;5108746;28;20052;-67
2022/02/05 10:30:08;;;;;;;1.15;0.70;;;;;;;7.21;52.31;99907.88;5101590;28;20043;-68
2022/02/05 10:32:42;;;;;;;1.58;0.82;;;;;;;7.15;52.01;99912.00;5099872;28;20518;-68
2022/02/05 10:35:22;;;;;;;4.03;1.00;;;;;;;7.08;52.54;99921.19;5096801;28;20088;-68
2022/02/05 10:37:58;;;;;;;2.08;0.98;;;;;;;7.03;53.12;99912.63;5096843;28;20106;-67
2022/02/05 10:40:43;;;;;;;1.38;0.80;;;;;;;6.90;53.03;99908.19;5098511;28;20089;-67
2022/02/05 10:43:15;;;;;;;2.88;0.90;;;;;;;6.90;53.95;99930.16;5107362;28;20504;-67
2022/02/05 10:45:48;;;;;;;1.50;0.80;;;;;;;6.86;53.12;99934.34;5099491;28;20048;-66
2022/02/05 10:48:20;;;;;;;3.15;0.88;;;;;;;6.75;53.32;99941.75;5100323;28;20079;-68
2022/02/05 10:50:51;;;;;;;1.60;0.80;;;;;;;6.72;54.08;99946.75;5104181;28;20040;-67
2022/02/05 10:53:55;;;;;;;4.72;0.88;;;;;;;6.71;53.99;99936.59;5109120;28;20047;-67
2022/02/05 10:56:37;;;;;;;3.05;1.08;;;;;;;6.67;53.72;99943.28;5101923;28;20039;-67
2022/02/05 10:59:38;;;;;;;3.85;1.00;;;;;;;6.74;54.06;99940.03;5101329;28;20056;-68
2022/02/05 11:07:25;;;;;;;1.63;0.98;;;;;;;6.90;52.65;99945.38;5113194;28;20412;-67
2022/02/05 11:09:57;;;;;;;1.95;1.05;;;;;;;7.03;52.60;99948.16;5106443;28;20043;-66
2022/02/05 11:20:35;;;;;;;1.38;0.82;;;;;;;7.40;52.65;99949.66;5099192;28;20074;-71
2022/02/05 11:23:07;;;;;;;1.30;0.82;;;;;;;7.46;52.32;99948.91;5103633;28;20051;-70
2022/02/05 11:25:42;;;;;;;4.30;1.60;;;;;;;7.54;52.59;99943.09;5098916;28;20043;-67
2022/02/05 11:28:12;;;;;;;4.30;1.20;;;;;;;7.60;52.28;99943.22;5111168;27;20078;-67
2022/02/05 11:30:47;;;;;;;2.80;1.40;;;;;;;7.51;51.65;99943.03;5111377;27;20067;-66
2022/02/05 11:33:23;;;;;;;1.77;1.05;;;;;;;7.39;52.51;99942.84;5096366;28;20062;-67
2022/02/05 11:38:36;;;;;;;4.65;1.48;;;;;;;7.24;52.83;99942.63;5112420;28;20126;-67
2022/02/05 11:41:07;;;;;;;4.43;1.60;;;;;;;7.13;53.83;99955.13;5113894;28;20036;-67
2022/02/05 11:43:40;;;;;;;2.63;1.20;;;;;;;7.08;53.20;99950.81;5097016;28;20050;-67
2022/02/05 11:46:11;;;;;;;7.53;1.60;;;;;;;7.10;53.54;99959.28;5101310;28;20035;-67
2022/02/05 11:48:55;;;;;;;2.38;1.10;;;;;;;7.00;53.59;99955.75;5094700;28;20060;-68
2022/02/05 11:51:26;;;;;;;4.88;1.30;;;;;;;6.98;53.36;99949.75;5096031;28;20092;-67
2022/02/05 11:54:10;;;;;;;2.22;1.17;;;;;;;7.01;54.05;99951.50;5101027;28;20071;-66
2022/02/05 11:56:50;;;;;;;6.85;1.30;;;;;;;7.06;53.79;99945.69;5100268;28;20496;-67
2022/02/05 11:59:21;;;;;;;2.83;1.02;;;;;;;7.08;53.77;99953.34;5100320;28;20074;-68
2022/02/05 12:01:50;;;;;;;2.38;1.20;;;;;;;7.09;53.54;99948.28;5099414;28;20044;-69
2022/02/05 12:04:23;;;;;;;7.45;1.20;;;;;;;7.00;54.32;99947.25;5100208;28;20031;-67
2022/02/05 12:06:54;;;;;;;3.92;1.35;;;;;;;6.93;53.67;99948.00;5099951;28;20047;-68
2022/02/05 12:09:46;;;;;;;3.28;1.10;;;;;;;6.88;54.22;99944.50;5106722;28;20047;-68
2022/02/05 12:12:38;;;;;;;1.85;0.90;;;;;;;6.88;54.08;99941.97;5095807;28;20044;-68
2022/02/05 12:15:21;;;;;;;2.03;0.93;;;;;;;6.90;53.64;99940.31;5102239;28;20039;-67
2022/02/05 12:18:13;;;;;;;1.85;1.00;;;;;;;7.05;53.59;99940.59;5096018;28;20320;-66
2022/02/05 12:21:03;;;;;;;2.13;1.02;;;;;;;7.22;53.55;99937.50;5101070;28;20489;-66
2022/02/05 12:24:21;;;;;;;3.33;1.10;;;;;;;7.36;53.09;99935.19;5099204;28;20139;-68
2022/02/05 12:26:50;;;;;;;3.50;1.30;;;;;;;7.27;52.94;99929.97;5095214;28;20052;-69
2022/02/05 12:29:31;;;;;;;2.50;1.15;;;;;;;7.21;53.14;99932.41;5097193;28;20047;-66
2022/02/05 12:32:02;;;;;;;3.65;1.27;;;;;;;7.12;52.73;99947.47;5095568;28;20046;-66
2022/02/05 12:34:42;;;;;;;1.90;1.05;;;;;;;7.01;52.39;99941.34;5098060;28;20051;-66
2022/02/05 12:37:11;;;;;;;4.22;1.30;;;;;;;7.02;52.95;99954.06;5100811;28;20114;-66
2022/02/05 12:39:40;;;;;;;2.87;1.33;;;;;;;6.95;52.72;99941.25;5094445;28;20040;-66
2022/02/05 12:42:14;;;;;;;1.63;0.82;;;;;;;6.90;52.61;99953.00;5102124;28;20043;-67
2022/02/05 12:44:46;;;;;;;3.08;1.13;;;;;;;6.89;51.88;99948.75;5110342;28;20078;-67
2022/02/05 12:47:26;;;;;;;3.38;1.25;;;;;;;6.88;51.84;99941.97;5101709;28;20416;-67
2022/02/05 12:50:02;;;;;;;3.95;1.13;;;;;;;6.78;52.27;99945.16;5095466;28;20047;-67
2022/02/05 12:52:31;;;;;;;2.33;1.15;;;;;;;6.73;51.71;99943.41;5098730;28;20075;-66
2022/02/05 12:55:02;;;;;;;1.38;0.88;;;;;;;6.86;51.73;99959.72;5101800;28;20085;-68
2022/02/05 12:57:32;;;;;;;2.35;1.27;;;;;;;6.95;51.71;99954.81;5101061;28;20043;-66
2022/02/05 13:00:09;;;;;;;1.90;1.05;;;;;;;7.01;51.23;99970.13;5095942;28;20138;-66
2022/02/05 13:02:39;;;;;;;1.65;1.02;;;;;;;7.00;51.17;99967.56;5095264;28;20062;-66
2022/02/05 13:05:08;;;;;;;2.97;1.27;;;;;;;7.10;51.77;99974.53;5098406;28;20028;-67
2022/02/05 13:07:42;;;;;;;1.92;1.13;;;;;;;7.09;52.16;99968.59;5092297;28;20127;-68
2022/02/05 13:10:12;;;;;;;2.90;1.30;;;;;;;7.13;51.94;99979.63;5101890;28;20048;-67
2022/02/05 13:12:43;;;;;;;2.40;1.00;;;;;;;7.13;50.83;99966.94;5117769;28;20062;-67
2022/02/05 13:15:21;;;;;;;1.88;1.15;;;;;;;7.14;51.59;99976.28;5106070;28;20032;-67
2022/02/05 13:18:09;;;;;;;3.47;1.33;;;;;;;7.15;50.60;99978.81;5097072;28;20490;-67
2022/02/05 13:26:13;;;;;;;3.03;1.00;;;;;;;7.14;48.80;99983.88;5097617;28;20048;-66
2022/02/05 13:28:50;;;;;;;3.10;1.00;;;;;;;7.14;49.00;99971.19;5101739;27;20046;-66
2022/02/05 13:34:09;;;;;;;3.05;1.02;;;;;;;7.30;47.99;99979.09;5113514;28;20051;-67
2022/02/05 13:36:45;;;;;;;1.52;0.75;;;;;;;7.49;47.46;99980.25;5108451;28;20051;-67
2022/02/05 13:39:31;;;;;;;1.27;0.77;;;;;;;7.59;47.50;99981.25;5100507;28;20048;-66
2022/02/05 13:42:04;;;;;;;2.28;0.95;;;;;;;7.52;46.31;99980.31;5103000;28;20131;-67
2022/02/05 13:44:52;;;;;;;2.88;1.02;;;;;;;7.78;45.53;99991.72;5098380;28;20093;-66
2022/02/05 13:47:22;;;;;;;4.10;1.10;;;;;;;8.13;45.95;99983.78;5114463;28;20039;-67
2022/02/05 13:50:05;;;;;;;3.97;1.35;;;;;;;8.27;44.98;99982.31;5105687;27;20085;-66
2022/02/05 13:52:37;;;;;;;2.35;0.90;;;;;;;8.02;44.89;100002.25;5100755;28;20036;-68
2022/02/05 13:55:19;;;;;;;2.08;1.10;;;;;;;7.88;45.12;99996.13;5114596;28;20043;-68
2022/02/05 13:57:57;;;;;;;2.63;1.10;;;;;;;7.63;44.79;99994.03;5103265;28;20047;-67
2022/02/05 14:00:39;;;;;;;3.13;0.93;;;;;;;7.45;46.37;100014.06;5104803;28;20539;-66
2022/02/05 14:03:10;;;;;;;2.72;1.17;;;;;;;7.34;46.48;100010.50;5113160;28;20040;-67
2022/02/05 14:05:46;;;;;;;2.50;1.30;;;;;;;7.20;46.27;100006.81;5099021;28;20468;-67
2022/02/05 14:08:26;;;;;;;2.05;1.00;;;;;;;7.13;46.62;100015.16;5094264;28;20046;-67